La Esperanza, Honduras
Current Conditions -  °F | °C
As of 12:58 PM on Thursday 23 Oct 2014 (Local Time) from MHSC Reporting Station
Clear Clear  
Wind Chill: 85°   Ceiling: Unl
Heat Index: 94°   Visibility: 6mi
Dew Point: 76°   Wind: 16mph
Humidity: 75%   Direction: 170°S
Pressure: 29.88"   Gusts: NA
Location:  14.31°N, 88.18°W
Report Text: MHSC 231858Z AUTO 17014KT 9999 CLR 29/25 A2988 RMK AO2 SLP076 T02940245 $
Loading
Personal Weather Stations






























Interactive Weather Map
Tropical Storm Tracking
New forecast layout! Learn more

10-Day Weather Forecast

Advertisements
Track Severe Weather on mobile